Time;durP1;ratioP1;P1;durP2;ratioP2;P2;SDS_P1;SDS_P2;PMS_P1;PMS_P2;Temp;Humidity;BMP_temperature;BMP_pressure;BME280_temperature;BME280_humidity;BME280_pressure;Samples;Min_cycle;Max_cycle;Signal;HPM_P1;HPM_P2
2021/04/11 00:01:00;;;;;;;9.13;6.13;;;;;;;;;;5073858;28;20081;-63
2021/04/11 00:03:26;;;;;;;15.98;10.13;;;;;;;;;;5074397;28;21926;-63
2021/04/11 00:05:52;;;;;;;13.32;9.27;;;;;;;;;;5075623;28;20490;-63
2021/04/11 00:08:18;;;;;;;10.10;7.75;;;;;;;;;;5073789;28;20132;-63
2021/04/11 00:10:45;;;;;;;14.27;5.80;;;;;;;;;;5075089;28;20068;-63
2021/04/11 00:13:12;;;;;;;7.50;4.43;;;;;;;;;;5074605;28;20032;-62
2021/04/11 00:15:38;;;;;;;6.50;3.83;;;;;;;;;;5073877;28;20029;-61
2021/04/11 00:18:03;;;;;;;10.25;4.90;;;;;;;;;;5074534;28;20028;-61
2021/04/11 00:20:29;;;;;;;10.38;4.90;;;;;;;;;;5073351;28;20062;-62
2021/04/11 00:22:54;;;;;;;8.02;4.85;;;;;;;;;;5075423;28;20032;-61
2021/04/11 00:25:23;;;;;;;12.85;5.78;;;;;;;;;;5074114;28;20025;-64
2021/04/11 00:27:48;;;;;;;11.65;5.68;;;;;;;;;;5073625;28;20028;-65
2021/04/11 00:30:16;;;;;;;11.95;3.72;;;;;;;;;;5074514;28;20035;-62
2021/04/11 00:32:42;;;;;;;9.30;5.13;;;;;;;;;;5074284;28;20050;-62
2021/04/11 00:35:08;;;;;;;14.07;7.03;;;;;;;;;;5074742;28;20024;-61
2021/04/11 00:37:34;;;;;;;10.50;6.15;;;;;;;;;;5073565;28;20402;-61
2021/04/11 00:40:00;;;;;;;9.57;6.22;;;;;;;;;;5074715;28;20032;-62
2021/04/11 00:42:38;;;;;;;8.93;6.15;;;;;;;;;;5073662;28;20024;-61
2021/04/11 00:45:16;;;;;;;5.50;4.63;;;;;;;;;;5071840;28;20028;-61
2021/04/11 00:47:42;;;;;;;6.47;4.68;;;;;;;;;;5072352;28;20032;-61
2021/04/11 00:50:09;;;;;;;6.55;3.70;;;;;;;;;;5074477;28;20028;-61
2021/04/11 00:52:35;;;;;;;3.58;2.88;;;;;;;;;;5073216;28;20466;-61
2021/04/11 00:55:00;;;;;;;7.20;3.13;;;;;;;;;;5073501;28;20024;-62
2021/04/11 00:57:26;;;;;;;7.13;4.93;;;;;;;;;;5073465;28;20032;-61
2021/04/11 00:59:51;;;;;;;11.55;4.80;;;;;;;;;;5080763;28;20052;-61
2021/04/11 01:02:16;;;;;;;15.60;4.57;;;;;;;;;;5075200;28;20024;-62
2021/04/11 01:04:42;;;;;;;3.65;2.95;;;;;;;;;;5077076;28;20021;-62
2021/04/11 01:07:10;;;;;;;7.35;3.58;;;;;;;;;;5077603;28;20012;-61
2021/04/11 01:09:37;;;;;;;7.68;3.70;;;;;;;;;;5074806;28;20127;-61
2021/04/11 01:12:05;;;;;;;8.20;3.22;;;;;;;;;;5073773;28;20115;-61
2021/04/11 01:14:31;;;;;;;7.55;3.13;;;;;;;;;;5074841;28;20012;-63
2021/04/11 01:16:57;;;;;;;5.80;3.92;;;;;;;;;;5077716;28;20421;-63
2021/04/11 01:19:25;;;;;;;5.30;3.45;;;;;;;;;;5076484;28;20506;-62
2021/04/11 01:21:50;;;;;;;15.30;3.63;;;;;;;;;;5077837;28;20492;-63
2021/04/11 01:24:15;;;;;;;6.25;3.42;;;;;;;;;;5076119;28;20016;-63
2021/04/11 01:26:42;;;;;;;7.43;3.15;;;;;;;;;;5077087;28;20478;-63
2021/04/11 01:29:08;;;;;;;8.68;5.25;;;;;;;;;;5077141;28;20036;-63
2021/04/11 01:31:34;;;;;;;9.57;5.55;;;;;;;;;;5074615;28;20025;-63
2021/04/11 01:33:59;;;;;;;4.88;4.07;;;;;;;;;;5076530;28;20038;-63
2021/04/11 01:36:27;;;;;;;7.40;3.47;;;;;;;;;;5076079;28;20031;-63
2021/04/11 01:38:52;;;;;;;6.43;4.63;;;;;;;;;;5076784;28;20830;-63
2021/04/11 01:41:20;;;;;;;9.25;4.55;;;;;;;;;;5076273;28;20111;-63
2021/04/11 01:43:47;;;;;;;3.95;2.47;;;;;;;;;;5077089;28;20077;-63
2021/04/11 01:46:12;;;;;;;9.43;4.28;;;;;;;;;;5076351;28;20337;-63
2021/04/11 01:48:38;;;;;;;4.63;3.72;;;;;;;;;;5075549;28;20036;-63
2021/04/11 01:51:04;;;;;;;13.52;4.25;;;;;;;;;;5074931;28;20499;-63
2021/04/11 01:53:30;;;;;;;5.03;3.00;;;;;;;;;;5075709;28;20028;-63
2021/04/11 01:55:56;;;;;;;4.07;2.85;;;;;;;;;;5075132;28;20043;-63
2021/04/11 01:58:23;;;;;;;4.95;3.70;;;;;;;;;;5075152;28;20033;-63
2021/04/11 02:00:50;;;;;;;4.38;3.22;;;;;;;;;;5075871;28;20225;-63
2021/04/11 02:03:17;;;;;;;7.43;3.42;;;;;;;;;;5075258;28;20031;-62
2021/04/11 02:05:47;;;;;;;8.65;5.25;;;;;;;;;;5076505;28;20623;-63
2021/04/11 02:08:15;;;;;;;4.40;3.55;;;;;;;;;;5075745;28;20459;-62
2021/04/11 02:10:44;;;;;;;5.03;4.28;;;;;;;;;;5076020;28;20458;-62
2021/04/11 02:13:10;;;;;;;4.50;3.55;;;;;;;;;;5075913;28;20020;-63
2021/04/11 02:15:38;;;;;;;6.63;3.28;;;;;;;;;;5074624;28;20112;-63
2021/04/11 02:18:04;;;;;;;10.43;3.33;;;;;;;;;;5073581;28;20391;-63
2021/04/11 02:20:30;;;;;;;5.45;2.95;;;;;;;;;;5075220;28;20020;-63
2021/04/11 02:22:56;;;;;;;3.85;2.78;;;;;;;;;;5074909;28;20024;-63
2021/04/11 02:25:23;;;;;;;4.82;2.42;;;;;;;;;;5074846;28;20028;-63
2021/04/11 02:27:48;;;;;;;4.82;2.83;;;;;;;;;;5075276;28;20044;-63
2021/04/11 02:30:15;;;;;;;5.35;3.25;;;;;;;;;;5075240;28;20070;-62
2021/04/11 02:32:41;;;;;;;6.10;3.90;;;;;;;;;;5075239;28;20035;-63
2021/04/11 02:35:08;;;;;;;9.35;4.78;;;;;;;;;;5075855;28;20032;-63
2021/04/11 02:37:34;;;;;;;13.82;3.70;;;;;;;;;;5075105;28;20502;-63
2021/04/11 02:40:00;;;;;;;8.35;2.55;;;;;;;;;;5076704;28;20459;-63
2021/04/11 02:42:34;;;;;;;4.38;2.97;;;;;;;;;;5075174;28;20073;-63
2021/04/11 02:45:22;;;;;;;7.75;4.20;;;;;;;;;;5074928;28;20032;-61
2021/04/11 02:47:48;;;;;;;4.60;2.97;;;;;;;;;;5066358;28;20368;-59
2021/04/11 02:50:14;;;;;;;6.90;3.05;;;;;;;;;;5074720;28;20043;-59
2021/04/11 02:52:43;;;;;;;6.75;2.30;;;;;;;;;;5074990;28;20634;-59
2021/04/11 02:55:12;;;;;;;3.20;2.72;;;;;;;;;;5075646;28;20031;-58
2021/04/11 02:57:37;;;;;;;10.38;3.28;;;;;;;;;;5074669;28;20032;-58
2021/04/11 03:00:05;;;;;;;16.98;3.42;;;;;;;;;;5076342;28;20032;-58
2021/04/11 03:02:31;;;;;;;5.85;2.80;;;;;;;;;;5074252;28;20028;-58
2021/04/11 03:04:56;;;;;;;4.22;2.67;;;;;;;;;;5076326;28;20046;-58
2021/04/11 03:07:26;;;;;;;2.75;2.20;;;;;;;;;;5074599;28;20021;-61
2021/04/11 03:10:07;;;;;;;8.65;3.03;;;;;;;;;;5074961;28;20123;-61
2021/04/11 03:12:32;;;;;;;5.00;2.80;;;;;;;;;;5074471;28;20035;-61
2021/04/11 03:14:58;;;;;;;3.95;2.53;;;;;;;;;;5076050;28;20020;-61
2021/04/11 03:17:24;;;;;;;9.50;4.93;;;;;;;;;;5073854;28;20070;-65
2021/04/11 03:20:08;;;;;;;12.10;3.60;;;;;;;;;;5076099;28;20436;-65
2021/04/11 03:22:33;;;;;;;2.95;2.17;;;;;;;;;;5071265;28;20149;-65
2021/04/11 03:24:59;;;;;;;3.33;1.83;;;;;;;;;;5075784;28;20032;-65
2021/04/11 03:27:29;;;;;;;4.47;2.28;;;;;;;;;;5074145;28;20058;-65
2021/04/11 03:29:59;;;;;;;8.25;2.92;;;;;;;;;;5080384;28;20101;-65
2021/04/11 03:32:30;;;;;;;9.23;3.55;;;;;;;;;;5078215;28;20029;-65
2021/04/11 03:34:56;;;;;;;7.45;3.25;;;;;;;;;;5080010;28;20029;-65
2021/04/11 03:37:23;;;;;;;6.85;3.13;;;;;;;;;;5078072;28;20474;-65
2021/04/11 03:39:48;;;;;;;5.55;4.05;;;;;;;;;;5079853;28;20035;-65
2021/04/11 03:42:16;;;;;;;8.50;2.95;;;;;;;;;;5078195;28;20020;-65
2021/04/11 03:44:41;;;;;;;3.67;2.67;;;;;;;;;;5078520;28;20024;-65
2021/04/11 03:47:16;;;;;;;7.68;3.78;;;;;;;;;;5076534;28;20013;-65
2021/04/11 03:49:53;;;;;;;3.40;2.65;;;;;;;;;;5077832;28;20020;-65
2021/04/11 03:52:24;;;;;;;6.88;2.58;;;;;;;;;;5078106;28;20585;-65
2021/04/11 03:54:50;;;;;;;5.78;3.35;;;;;;;;;;5079842;28;20028;-64
2021/04/11 03:57:38;;;;;;;7.68;2.38;;;;;;;;;;5074699;28;20036;-65
2021/04/11 04:00:04;;;;;;;11.00;3.75;;;;;;;;;;5076360;28;20148;-65
2021/04/11 04:02:30;;;;;;;8.27;2.78;;;;;;;;;;5077446;28;20566;-65
2021/04/11 04:04:57;;;;;;;5.05;2.70;;;;;;;;;;5079389;28;20028;-65
2021/04/11 04:07:22;;;;;;;4.00;3.60;;;;;;;;;;5077605;28;20429;-65
2021/04/11 04:09:54;;;;;;;6.97;2.40;;;;;;;;;;5079113;28;20107;-65
2021/04/11 04:12:29;;;;;;;5.18;3.50;;;;;;;;;;5077503;28;20032;-65
2021/04/11 04:15:11;;;;;;;4.82;3.00;;;;;;;;;;5078967;28;20045;-65
2021/04/11 04:17:42;;;;;;;11.82;4.07;;;;;;;;;;5077012;28;20055;-65
2021/04/11 04:20:13;;;;;;;5.97;3.67;;;;;;;;;;5078494;28;20036;-65
2021/04/11 04:23:01;;;;;;;4.15;3.38;;;;;;;;;;5077779;28;20044;-64
2021/04/11 04:25:32;;;;;;;6.85;2.85;;;;;;;;;;5046739;28;20038;-65
2021/04/11 04:28:13;;;;;;;14.23;5.80;;;;;;;;;;5078405;28;20379;-65
2021/04/11 04:30:48;;;;;;;8.93;3.63;;;;;;;;;;5077611;28;20043;-65
2021/04/11 04:33:23;;;;;;;3.13;2.63;;;;;;;;;;5077210;28;20027;-65
2021/04/11 04:36:14;;;;;;;6.20;4.63;;;;;;;;;;5078921;28;20036;-65
2021/04/11 04:39:02;;;;;;;9.18;3.75;;;;;;;;;;5043875;28;20036;-65
2021/04/11 04:41:46;;;;;;;11.63;4.03;;;;;;;;;;5076008;28;20036;-65
2021/04/11 04:44:14;;;;;;;13.20;2.72;;;;;;;;;;5076459;28;20021;-65
2021/04/11 04:46:45;;;;;;;6.28;3.80;;;;;;;;;;5077638;28;20062;-65
2021/04/11 04:49:15;;;;;;;4.72;3.33;;;;;;;;;;5076755;28;20431;-58
2021/04/11 04:51:52;;;;;;;3.90;2.75;;;;;;;;;;5077894;28;20038;-65
2021/04/11 04:54:26;;;;;;;9.27;3.47;;;;;;;;;;5077015;28;20032;-65
2021/04/11 04:57:01;;;;;;;6.53;3.00;;;;;;;;;;5078316;28;20036;-64
2021/04/11 04:59:29;;;;;;;9.13;3.00;;;;;;;;;;5076679;28;20025;-65
2021/04/11 05:02:06;;;;;;;6.32;3.67;;;;;;;;;;5078415;28;20032;-65
2021/04/11 05:04:33;;;;;;;4.93;1.95;;;;;;;;;;5075578;28;20032;-62
2021/04/11 05:07:01;;;;;;;4.10;3.17;;;;;;;;;;5078539;28;20024;-63
2021/04/11 05:09:37;;;;;;;12.68;4.55;;;;;;;;;;5076725;28;20040;-62
2021/04/11 05:12:41;;;;;;;7.10;4.13;;;;;;;;;;5075380;28;20058;-63
2021/04/11 05:15:10;;;;;;;7.90;4.65;;;;;;;;;;5010456;28;20121;-62
2021/04/11 05:17:38;;;;;;;17.38;4.93;;;;;;;;;;5010291;28;20064;-65
2021/04/11 05:20:08;;;;;;;3.90;3.00;;;;;;;;;;5041625;28;20394;-65
2021/04/11 05:22:44;;;;;;;11.82;5.03;;;;;;;;;;5076257;28;20013;-66
2021/04/11 05:25:13;;;;;;;2.92;2.55;;;;;;;;;;5075475;28;20922;-63
2021/04/11 05:27:44;;;;;;;6.40;4.03;;;;;;;;;;5075395;28;20016;-63
2021/04/11 05:30:20;;;;;;;17.92;3.10;;;;;;;;;;5077035;28;20036;-63
2021/04/11 05:32:47;;;;;;;5.45;3.15;;;;;;;;;;5077030;28;20021;-63
2021/04/11 05:35:12;;;;;;;4.80;3.08;;;;;;;;;;5076526;28;20392;-63
2021/04/11 05:37:43;;;;;;;5.93;4.20;;;;;;;;;;5075921;28;20081;-63
2021/04/11 05:40:17;;;;;;;10.00;5.15;;;;;;;;;;5076895;28;20020;-63
2021/04/11 05:42:48;;;;;;;3.33;2.80;;;;;;;;;;5076659;28;20112;-64
2021/04/11 05:45:23;;;;;;;12.48;4.10;;;;;;;;;;5076106;28;20025;-64
2021/04/11 05:47:48;;;;;;;4.82;2.63;;;;;;;;;;5077145;28;20028;-63
2021/04/11 05:50:17;;;;;;;8.02;2.92;;;;;;;;;;5075295;28;20689;-61
2021/04/11 05:52:49;;;;;;;4.57;3.35;;;;;;;;;;5076562;28;20024;-61
2021/04/11 05:55:16;;;;;;;4.90;2.35;;;;;;;;;;5075578;28;20212;-57
2021/04/11 05:58:01;;;;;;;3.47;2.63;;;;;;;;;;5074774;28;20090;-63
2021/04/11 06:00:30;;;;;;;7.10;3.28;;;;;;;;;;5075080;28;20037;-63
2021/04/11 06:03:00;;;;;;;4.95;3.13;;;;;;;;;;5077239;28;20029;-63
2021/04/11 06:05:29;;;;;;;7.13;3.05;;;;;;;;;;5075300;28;20036;-63
2021/04/11 06:07:55;;;;;;;4.65;2.85;;;;;;;;;;5077244;28;20051;-63
2021/04/11 06:10:30;;;;;;;9.95;2.38;;;;;;;;;;5075581;28;20024;-64
2021/04/11 06:12:58;;;;;;;3.40;2.58;;;;;;;;;;5076929;28;20025;-63
2021/04/11 06:15:28;;;;;;;12.45;3.85;;;;;;;;;;5075158;28;20455;-64
2021/04/11 06:17:54;;;;;;;9.55;3.95;;;;;;;;;;5077050;28;20048;-58
2021/04/11 06:20:20;;;;;;;7.07;4.15;;;;;;;;;;5075396;28;20031;-67
2021/04/11 06:22:58;;;;;;;4.18;3.00;;;;;;;;;;5073355;28;20025;-58
2021/04/11 06:25:34;;;;;;;16.30;6.35;;;;;;;;;;5067433;28;20012;-61
2021/04/11 06:28:10;;;;;;;18.38;6.63;;;;;;;;;;5069748;28;20432;-61
2021/04/11 06:30:59;;;;;;;6.25;4.38;;;;;;;;;;5070092;28;20118;-64
2021/04/11 06:33:26;;;;;;;12.93;4.13;;;;;;;;;;5061060;28;20044;-64
2021/04/11 06:35:57;;;;;;;13.20;6.28;;;;;;;;;;5071914;28;20374;-64
2021/04/11 06:38:22;;;;;;;;;;;;;;;;;;5072256;28;20414;-64
2021/04/11 06:40:57;;;;;;;10.70;5.70;;;;;;;;;;5075695;28;20007;-64
2021/04/11 06:43:46;;;;;;;11.20;6.38;;;;;;;;;;5071957;28;20009;-64
2021/04/11 06:46:21;;;;;;;8.10;6.80;;;;;;;;;;5074122;28;20375;-64
2021/04/11 06:49:05;;;;;;;12.07;6.20;;;;;;;;;;5075907;28;20025;-64
2021/04/11 06:51:49;;;;;;;13.48;5.63;;;;;;;;;;5074484;28;20108;-64
2021/04/11 06:54:23;;;;;;;5.45;2.78;;;;;;;;;;5073262;28;20051;-64
2021/04/11 06:57:07;;;;;;;10.55;3.58;;;;;;;;;;5075179;28;20033;-64
2021/04/11 06:59:51;;;;;;;10.98;4.50;;;;;;;;;;5074105;28;20013;-59
2021/04/11 07:02:35;;;;;;;6.72;4.95;;;;;;;;;;5069742;28;20029;-66
2021/04/11 07:05:09;;;;;;;17.50;10.73;;;;;;;;;;5073893;28;20036;-61
2021/04/11 07:07:38;;;;;;;23.27;12.55;;;;;;;;;;5072739;28;20017;-60
2021/04/11 07:10:06;;;;;;;12.20;9.05;;;;;;;;;;5072977;28;20035;-61
2021/04/11 07:12:50;;;;;;;17.00;5.68;;;;;;;;;;5074839;28;20098;-61
2021/04/11 07:15:34;;;;;;;9.02;6.15;;;;;;;;;;5070344;28;20164;-62
2021/04/11 07:18:05;;;;;;;11.15;5.55;;;;;;;;;;5071689;28;20041;-62
2021/04/11 07:20:33;;;;;;;7.53;5.50;;;;;;;;;;5074011;28;20379;-62
2021/04/11 07:22:58;;;;;;;7.78;5.32;;;;;;;;;;5072432;28;20027;-60
2021/04/11 07:25:47;;;;;;;9.32;7.25;;;;;;;;;;5073018;28;20025;-61
2021/04/11 07:28:27;;;;;;;18.33;11.43;;;;;;;;;;5073171;28;20016;-66
2021/04/11 07:30:57;;;;;;;11.55;8.27;;;;;;;;;;5074812;28;20062;-65
2021/04/11 07:33:38;;;;;;;11.93;7.40;;;;;;;;;;5073197;28;20017;-66
2021/04/11 07:36:10;;;;;;;12.20;8.17;;;;;;;;;;5070769;28;20036;-66
2021/04/11 07:38:48;;;;;;;8.27;7.40;;;;;;;;;;5070727;28;20082;-66
2021/04/11 07:41:45;;;;;;;10.88;8.80;;;;;;;;;;5057138;28;20110;-66
2021/04/11 07:44:16;;;;;;;9.68;6.28;;;;;;;;;;5055286;28;20090;-66
2021/04/11 07:47:00;;;;;;;7.00;5.55;;;;;;;;;;5068855;28;20423;-61
2021/04/11 07:49:44;;;;;;;9.00;3.25;;;;;;;;;;5066351;28;20028;-61
2021/04/11 07:52:28;;;;;;;8.73;3.25;;;;;;;;;;5066108;28;20101;-61
2021/04/11 07:55:16;;;;;;;24.77;3.78;;;;;;;;;;5069255;28;20444;-60
2021/04/11 07:58:00;;;;;;;6.05;2.53;;;;;;;;;;5064982;28;20024;-60
2021/04/11 08:00:34;;;;;;;22.23;14.30;;;;;;;;;;5067658;28;20086;-60
2021/04/11 08:03:02;;;;;;;24.15;18.52;;;;;;;;;;5070006;28;20040;-60
2021/04/11 08:05:35;;;;;;;16.38;10.80;;;;;;;;;;5066019;28;20117;-60
2021/04/11 08:08:18;;;;;;;12.85;7.07;;;;;;;;;;5070521;28;20099;-61
2021/04/11 08:10:46;;;;;;;16.30;12.40;;;;;;;;;;5069081;28;20101;-60
2021/04/11 08:13:12;;;;;;;22.48;10.63;;;;;;;;;;5069479;28;20032;-60
2021/04/11 08:15:50;;;;;;;11.63;5.70;;;;;;;;;;5072382;28;20474;-61
2021/04/11 08:18:20;;;;;;;10.05;5.15;;;;;;;;;;5069960;28;20090;-60
2021/04/11 08:20:57;;;;;;;14.15;5.78;;;;;;;;;;5073816;28;20391;-65
2021/04/11 08:23:25;;;;;;;10.05;4.70;;;;;;;;;;5074192;28;20517;-66
2021/04/11 08:25:50;;;;;;;17.23;6.22;;;;;;;;;;5076379;28;20092;-66
2021/04/11 08:28:25;;;;;;;11.55;6.65;;;;;;;;;;5069861;28;20447;-67
2021/04/11 08:30:59;;;;;;;20.48;7.28;;;;;;;;;;5076048;28;20064;-66
2021/04/11 08:33:30;;;;;;;8.45;5.57;;;;;;;;;;5072335;28;20901;-67
2021/04/11 08:35:59;;;;;;;11.63;5.47;;;;;;;;;;5075774;28;20033;-67
2021/04/11 08:38:33;;;;;;;9.18;5.78;;;;;;;;;;5071903;28;20394;-66
2021/04/11 08:41:16;;;;;;;23.77;4.65;;;;;;;;;;5073994;28;20110;-60
2021/04/11 08:43:51;;;;;;;7.25;2.85;;;;;;;;;;5075079;28;20544;-61
2021/04/11 08:46:23;;;;;;;39.25;20.20;;;;;;;;;;5074490;28;20038;-61
2021/04/11 08:49:00;;;;;;;5.53;3.70;;;;;;;;;;5073802;28;20493;-60
2021/04/11 08:51:29;;;;;;;13.20;8.00;;;;;;;;;;5073935;28;20419;-62
2021/04/11 08:53:55;;;;;;;14.68;8.75;;;;;;;;;;5073300;28;20044;-67
2021/04/11 08:56:23;;;;;;;14.07;8.20;;;;;;;;;;5072130;28;20062;-67
2021/04/11 08:58:48;;;;;;;12.75;9.20;;;;;;;;;;5074893;28;20174;-67
2021/04/11 09:01:21;;;;;;;12.82;8.05;;;;;;;;;;5073105;28;20558;-67
2021/04/11 09:03:52;;;;;;;32.53;7.93;;;;;;;;;;5074812;28;20027;-67
2021/04/11 09:06:40;;;;;;;14.63;3.88;;;;;;;;;;5073570;28;20111;-67
2021/04/11 09:09:11;;;;;;;6.47;3.05;;;;;;;;;;5071489;28;20032;-67
2021/04/11 09:11:46;;;;;;;11.05;3.28;;;;;;;;;;5073656;28;20033;-67
2021/04/11 09:14:24;;;;;;;21.05;3.55;;;;;;;;;;5072061;28;20040;-67
2021/04/11 09:16:52;;;;;;;13.38;4.00;;;;;;;;;;5074573;28;20161;-68
2021/04/11 09:19:26;;;;;;;5.20;3.00;;;;;;;;;;5073079;28;20031;-68
2021/04/11 09:22:15;;;;;;;6.28;3.88;;;;;;;;;;5074868;28;20042;-68
2021/04/11 09:24:46;;;;;;;6.47;2.67;;;;;;;;;;5033399;28;20107;-68
2021/04/11 09:27:17;;;;;;;8.48;4.03;;;;;;;;;;5073425;28;20103;-67
2021/04/11 09:29:45;;;;;;;5.22;2.97;;;;;;;;;;5073965;28;20025;-68
2021/04/11 09:32:20;;;;;;;6.13;2.53;;;;;;;;;;5073834;28;20028;-67
2021/04/11 09:34:46;;;;;;;4.75;3.20;;;;;;;;;;5074298;28;20032;-67
2021/04/11 09:37:11;;;;;;;15.43;3.45;;;;;;;;;;5073018;28;20497;-67
2021/04/11 09:39:55;;;;;;;8.90;3.75;;;;;;;;;;5072693;28;20025;-68
2021/04/11 09:42:20;;;;;;;11.70;4.18;;;;;;;;;;5072954;28;20028;-68
2021/04/11 09:45:01;;;;;;;5.93;3.10;;;;;;;;;;5073854;28;20035;-68
2021/04/11 09:47:45;;;;;;;9.23;3.30;;;;;;;;;;5070523;28;20111;-68
2021/04/11 09:50:13;;;;;;;7.15;3.35;;;;;;;;;;5071141;28;20036;-68
2021/04/11 09:52:41;;;;;;;12.48;4.35;;;;;;;;;;5072767;28;20020;-68
2021/04/11 09:55:11;;;;;;;5.22;2.80;;;;;;;;;;5073913;28;20028;-69
2021/04/11 09:57:39;;;;;;;14.95;3.55;;;;;;;;;;5072126;28;20486;-67
2021/04/11 10:00:23;;;;;;;8.60;4.32;;;;;;;;;;5071562;28;20032;-68
2021/04/11 10:02:56;;;;;;;11.75;3.03;;;;;;;;;;5072834;28;20049;-67
2021/04/11 10:05:27;;;;;;;6.90;3.40;;;;;;;;;;5071526;28;20570;-67
2021/04/11 10:08:08;;;;;;;7.53;4.20;;;;;;;;;;5072389;28;20035;-67
2021/04/11 10:10:54;;;;;;;12.93;4.57;;;;;;;;;;5071847;28;20033;-68
2021/04/11 10:13:38;;;;;;;7.82;4.65;;;;;;;;;;5045300;28;20044;-67
2021/04/11 10:16:21;;;;;;;8.50;4.10;;;;;;;;;;5070341;28;20047;-68
2021/04/11 10:18:52;;;;;;;16.88;4.50;;;;;;;;;;5073190;28;20016;-68
2021/04/11 10:21:34;;;;;;;6.07;2.90;;;;;;;;;;5072308;28;20378;-68
2021/04/11 10:24:19;;;;;;;7.78;2.53;;;;;;;;;;5074137;28;20129;-67
2021/04/11 10:27:03;;;;;;;10.38;2.47;;;;;;;;;;5072931;28;20108;-67
2021/04/11 10:29:29;;;;;;;9.50;3.05;;;;;;;;;;5071832;28;20433;-66
2021/04/11 10:32:05;;;;;;;14.57;3.60;;;;;;;;;;5073867;28;20028;-67
2021/04/11 10:34:53;;;;;;;6.07;3.33;;;;;;;;;;5072058;28;20471;-67
2021/04/11 10:37:25;;;;;;;11.23;3.70;;;;;;;;;;5062570;28;20040;-66
2021/04/11 10:39:59;;;;;;;13.55;5.40;;;;;;;;;;5072139;28;20033;-67
2021/04/11 10:42:40;;;;;;;14.63;4.65;;;;;;;;;;5071081;28;20364;-67
2021/04/11 10:45:15;;;;;;;9.88;3.97;;;;;;;;;;5070065;28;20123;-67
2021/04/11 10:47:55;;;;;;;20.33;4.47;;;;;;;;;;5069321;28;20438;-67
2021/04/11 10:50:28;;;;;;;12.98;4.60;;;;;;;;;;5071115;28;20475;-67
2021/04/11 10:52:57;;;;;;;18.17;4.80;;;;;;;;;;5071468;28;20024;-67
2021/04/11 10:55:27;;;;;;;10.13;3.88;;;;;;;;;;5071645;28;20079;-67
2021/04/11 10:57:58;;;;;;;16.30;4.90;;;;;;;;;;5073975;28;20491;-67
2021/04/11 11:00:23;;;;;;;;;;;;;;;;;;5072200;28;20025;-67
2021/04/11 11:02:55;;;;;;;6.15;3.20;;;;;;;;;;5073290;28;20386;-67
2021/04/11 11:05:27;;;;;;;11.77;4.85;;;;;;;;;;5071432;28;20040;-67
2021/04/11 11:08:05;;;;;;;19.58;12.93;;;;;;;;;;5073248;28;20048;-67
2021/04/11 11:10:49;;;;;;;26.15;12.27;;;;;;;;;;5068482;28;20040;-68
2021/04/11 11:13:15;;;;;;;14.00;9.05;;;;;;;;;;5068977;28;20053;-68
2021/04/11 11:15:48;;;;;;;12.15;3.83;;;;;;;;;;5072027;28;20647;-67
2021/04/11 11:18:32;;;;;;;12.32;9.50;;;;;;;;;;5071818;28;20152;-68
2021/04/11 11:20:57;;;;;;;11.70;7.05;;;;;;;;;;5072970;28;20449;-68
2021/04/11 11:23:25;;;;;;;7.32;6.55;;;;;;;;;;5070461;28;20040;-68
2021/04/11 11:25:51;;;;;;;14.63;4.07;;;;;;;;;;5072736;28;20101;-67
2021/04/11 11:28:19;;;;;;;6.22;4.40;;;;;;;;;;5069195;28;20033;-68
2021/04/11 11:30:44;;;;;;;10.65;3.17;;;;;;;;;;5068938;28;20050;-68
2021/04/11 11:33:10;;;;;;;6.95;2.30;;;;;;;;;;5071512;28;20036;-68
2021/04/11 11:35:48;;;;;;;2.15;1.42;;;;;;;;;;5071221;28;20081;-68
2021/04/11 11:38:32;;;;;;;5.18;2.22;;;;;;;;;;5069823;28;20064;-68
2021/04/11 11:41:04;;;;;;;3.55;1.88;;;;;;;;;;5073424;28;20036;-68
2021/04/11 11:43:39;;;;;;;8.27;2.85;;;;;;;;;;5070674;28;20033;-68
2021/04/11 11:46:04;;;;;;;5.22;1.50;;;;;;;;;;5070320;28;20031;-68
2021/04/11 11:48:47;;;;;;;10.07;2.83;;;;;;;;;;5071480;28;20036;-68
2021/04/11 11:51:24;;;;;;;7.00;2.05;;;;;;;;;;5074738;28;20053;-68
2021/04/11 11:53:57;;;;;;;6.75;2.33;;;;;;;;;;5076191;28;20044;-68
2021/04/11 11:56:27;;;;;;;10.60;2.90;;;;;;;;;;5075852;28;20028;-68
2021/04/11 11:59:12;;;;;;;9.57;2.72;;;;;;;;;;5077083;28;20399;-68
2021/04/11 12:01:48;;;;;;;6.82;1.73;;;;;;;;;;5075424;28;20450;-68
2021/04/11 12:04:16;;;;;;;8.13;2.88;;;;;;;;;;5075394;28;20020;-68
2021/04/11 12:06:48;;;;;;;7.38;1.85;;;;;;;;;;5076160;28;20542;-68
2021/04/11 12:09:13;;;;;;;7.68;1.75;;;;;;;;;;5075156;28;20111;-68
2021/04/11 12:11:46;;;;;;;8.55;1.98;;;;;;;;;;5075790;28;20108;-68
2021/04/11 12:14:19;;;;;;;8.25;3.05;;;;;;;;;;5075067;28;20056;-68
2021/04/11 12:16:46;;;;;;;7.53;3.40;;;;;;;;;;5075801;28;20525;-68
2021/04/11 12:19:12;;;;;;;9.18;1.40;;;;;;;;;;5075144;28;20094;-68
2021/04/11 12:21:37;;;;;;;4.00;2.30;;;;;;;;;;5074862;28;20020;-68
2021/04/11 12:24:08;;;;;;;6.25;3.33;;;;;;;;;;5076810;28;20024;-68
2021/04/11 12:26:33;;;;;;;;;;;;;;;;;;5074801;28;20020;-68
2021/04/11 12:29:10;;;;;;;11.38;3.67;;;;;;;;;;5077484;28;19956;-66
2021/04/11 12:31:42;;;;;;;5.68;2.33;;;;;;;;;;5076774;28;20035;-66
2021/04/11 12:34:18;;;;;;;18.30;3.20;;;;;;;;;;5075200;28;20100;-65
2021/04/11 12:37:02;;;;;;;5.03;3.60;;;;;;;;;;5075993;28;20032;-66
2021/04/11 12:39:29;;;;;;;5.97;3.42;;;;;;;;;;5075753;28;20029;-65
2021/04/11 12:41:54;;;;;;;7.15;2.85;;;;;;;;;;5077591;28;20036;-65
2021/04/11 12:44:35;;;;;;;14.98;2.85;;;;;;;;;;5073679;28;20020;-65
2021/04/11 12:47:06;;;;;;;5.45;2.35;;;;;;;;;;5078074;28;20032;-65
2021/04/11 12:49:43;;;;;;;4.40;3.20;;;;;;;;;;5075820;28;20021;-66
2021/04/11 12:52:19;;;;;;;3.03;1.98;;;;;;;;;;5074904;28;20040;-66
2021/04/11 12:54:47;;;;;;;7.20;2.83;;;;;;;;;;5077110;28;20382;-65
2021/04/11 12:57:23;;;;;;;2.75;1.08;;;;;;;;;;5076108;28;20419;-66
2021/04/11 13:00:05;;;;;;;8.82;2.90;;;;;;;;;;5075307;28;20478;-66
2021/04/11 13:02:37;;;;;;;3.33;2.42;;;;;;;;;;5075558;28;20041;-65
2021/04/11 13:05:05;;;;;;;6.35;4.10;;;;;;;;;;5074048;28;20091;-66
2021/04/11 13:07:36;;;;;;;10.27;3.95;;;;;;;;;;5075638;28;20021;-65
2021/04/11 13:10:08;;;;;;;2.53;1.48;;;;;;;;;;5077360;28;20123;-65
2021/04/11 13:12:42;;;;;;;5.43;1.65;;;;;;;;;;5075517;28;20033;-65
2021/04/11 13:15:10;;;;;;;9.02;2.97;;;;;;;;;;5074228;28;20023;-65
2021/04/11 13:17:41;;;;;;;5.47;2.75;;;;;;;;;;5074866;28;20121;-66
2021/04/11 13:20:16;;;;;;;14.73;3.80;;;;;;;;;;5074055;28;20023;-65
2021/04/11 13:22:47;;;;;;;8.70;2.95;;;;;;;;;;5075918;28;20108;-65
2021/04/11 13:25:33;;;;;;;6.15;2.42;;;;;;;;;;5072780;28;20028;-65
2021/04/11 13:28:03;;;;;;;3.85;2.58;;;;;;;;;;5041485;28;20039;-65
2021/04/11 13:30:31;;;;;;;3.60;1.85;;;;;;;;;;5075294;28;20035;-65
2021/04/11 13:33:02;;;;;;;3.90;2.15;;;;;;;;;;5076952;28;20024;-65
2021/04/11 13:35:38;;;;;;;4.53;1.20;;;;;;;;;;5074858;28;20085;-65
2021/04/11 13:38:06;;;;;;;6.25;1.30;;;;;;;;;;5072831;28;20383;-65
2021/04/11 13:40:33;;;;;;;4.20;2.67;;;;;;;;;;5074854;28;20217;-65
2021/04/11 13:43:17;;;;;;;4.32;2.08;;;;;;;;;;5076910;28;20484;-65
2021/04/11 13:45:51;;;;;;;4.88;1.35;;;;;;;;;;5075565;28;20455;-65
2021/04/11 13:48:28;;;;;;;5.75;2.80;;;;;;;;;;5073334;28;20025;-65
2021/04/11 13:51:09;;;;;;;8.45;4.15;;;;;;;;;;5076601;28;20062;-65
2021/04/11 13:53:46;;;;;;;5.67;2.30;;;;;;;;;;5072540;28;20035;-67
2021/04/11 13:56:35;;;;;;;6.97;3.38;;;;;;;;;;5074324;28;20276;-66
2021/04/11 13:59:09;;;;;;;7.03;3.45;;;;;;;;;;5043895;28;20044;-67
2021/04/11 14:01:51;;;;;;;3.42;1.90;;;;;;;;;;5073097;28;20107;-66
2021/04/11 14:04:34;;;;;;;5.75;2.65;;;;;;;;;;5075473;28;20035;-65
2021/04/11 14:07:01;;;;;;;7.22;1.77;;;;;;;;;;5075862;28;20394;-65
2021/04/11 14:09:31;;;;;;;5.55;1.85;;;;;;;;;;5072799;28;20103;-65
2021/04/11 14:12:05;;;;;;;8.73;2.75;;;;;;;;;;5076981;28;20097;-64
2021/04/11 14:14:35;;;;;;;4.45;2.30;;;;;;;;;;5074124;28;20025;-66
2021/04/11 14:17:03;;;;;;;4.28;2.75;;;;;;;;;;5076060;28;20056;-65
2021/04/11 14:19:38;;;;;;;5.38;2.60;;;;;;;;;;5074115;28;20028;-66
2021/04/11 14:22:27;;;;;;;4.95;2.72;;;;;;;;;;5072107;28;20032;-65
2021/04/11 14:25:11;;;;;;;4.25;2.83;;;;;;;;;;5065511;28;20391;-65
2021/04/11 14:27:39;;;;;;;13.27;3.72;;;;;;;;;;5071742;28;20021;-65
2021/04/11 14:30:13;;;;;;;4.72;2.65;;;;;;;;;;5070890;28;20024;-65
2021/04/11 14:32:42;;;;;;;7.13;3.13;;;;;;;;;;5070729;28;20031;-70
2021/04/11 14:35:07;;;;;;;4.18;2.15;;;;;;;;;;5073429;28;20099;-66
2021/04/11 14:37:37;;;;;;;9.45;3.30;;;;;;;;;;5067656;28;20111;-66
2021/04/11 14:40:16;;;;;;;6.15;1.98;;;;;;;;;;5071577;28;20027;-66
2021/04/11 14:43:02;;;;;;;5.68;3.63;;;;;;;;;;5069535;28;20028;-65
2021/04/11 14:45:36;;;;;;;4.30;2.22;;;;;;;;;;5066740;28;20433;-66
2021/04/11 14:48:07;;;;;;;2.88;1.25;;;;;;;;;;5073391;28;20019;-65
2021/04/11 14:50:34;;;;;;;7.70;3.72;;;;;;;;;;5071621;28;20028;-65
2021/04/11 14:53:19;;;;;;;6.88;3.97;;;;;;;;;;5068593;28;20119;-66
2021/04/11 14:55:44;;;;;;;3.72;1.77;;;;;;;;;;5072465;28;20162;-66
2021/04/11 14:58:22;;;;;;;9.05;2.78;;;;;;;;;;5070588;28;20538;-66
2021/04/11 15:00:47;;;;;;;5.05;2.55;;;;;;;;;;5072749;28;20059;-66
2021/04/11 15:03:31;;;;;;;3.20;1.45;;;;;;;;;;5071811;28;20048;-66
2021/04/11 15:06:13;;;;;;;6.57;2.15;;;;;;;;;;5069015;28;20036;-66
2021/04/11 15:08:44;;;;;;;7.32;3.63;;;;;;;;;;5068034;28;20103;-66